Time;durP1;ratioP1;P1;durP2;ratioP2;P2;SDS_P1;SDS_P2;PMS_P1;PMS_P2;Temp;Humidity;BMP_temperature;BMP_pressure;BME280_temperature;BME280_humidity;BME280_pressure;Samples;Min_cycle;Max_cycle;Signal;HPM_P1;HPM_P2
2021/05/25 13:28:54;;;;;;;2.10;0.53;;;14.40;99.90;;;;;;4924732;23;20670;-70
2021/05/25 13:31:22;;;;;;;0.53;0.30;;;14.10;99.90;;;;;;4933941;29;20216;-70
2021/05/25 13:33:49;;;;;;;2.03;0.43;;;14.10;99.90;;;;;;4934377;29;20240;-69
2021/05/25 13:36:15;;;;;;;0.63;0.37;;;14.40;99.90;;;;;;4934119;29;20236;-69
2021/05/25 13:38:42;;;;;;;1.90;0.80;;;14.80;99.90;;;;;;4929318;29;20281;-67
2021/05/25 13:41:08;;;;;;;2.23;0.70;;;15.10;99.90;;;;;;4913630;29;20698;-66
2021/05/25 13:43:34;;;;;;;1.83;0.77;;;15.20;99.90;;;;;;4914635;29;20210;-70
2021/05/25 13:46:03;;;;;;;0.93;0.40;;;15.50;99.90;;;;;;4914312;29;20221;-71
2021/05/25 13:48:30;;;;;;;2.17;0.80;;;15.80;99.90;;;;;;4914824;29;20237;-71
2021/05/25 13:50:56;;;;;;;1.57;0.50;;;15.90;99.90;;;;;;4914423;29;20225;-70
2021/05/25 13:53:23;;;;;;;0.77;0.33;;;15.70;99.90;;;;;;4915076;29;20237;-68
2021/05/25 13:55:49;;;;;;;0.40;0.20;;;15.10;99.90;;;;;;4914816;29;20673;-70
2021/05/25 13:58:18;;;;;;;1.73;0.40;;;14.50;99.90;;;;;;4914082;29;20321;-68
2021/05/25 14:00:56;;;;;;;0.67;0.20;;;13.90;99.90;;;;;;4915557;29;20561;-70
2021/05/25 14:03:23;;;;;;;0.60;0.37;;;13.50;99.90;;;;;;4916177;29;20213;-71
2021/05/25 14:05:51;;;;;;;2.87;0.40;;;13.40;99.90;;;;;;4916636;29;20236;-71
2021/05/25 14:08:17;;;;;;;0.97;0.40;;;13.40;99.90;;;;;;4916470;29;20222;-70
2021/05/25 14:10:44;;;;;;;3.97;0.70;;;13.60;99.90;;;;;;4919494;29;20413;-72
2021/05/25 14:13:10;;;;;;;2.77;0.50;;;13.90;99.90;;;;;;4919417;29;20245;-67
2021/05/25 14:15:37;;;;;;;1.37;0.40;;;14.20;99.90;;;;;;4918046;29;20265;-69
2021/05/25 14:18:04;;;;;;;1.13;0.50;;;14.30;99.90;;;;;;4918519;29;20209;-68
2021/05/25 14:20:32;;;;;;;1.50;0.50;;;14.60;99.90;;;;;;4917678;29;20677;-70
2021/05/25 14:22:59;;;;;;;1.10;0.50;;;14.90;99.90;;;;;;4918123;29;20214;-69
2021/05/25 14:25:26;;;;;;;2.83;0.40;;;15.20;99.90;;;;;;4918724;29;20742;-70
2021/05/25 14:27:52;;;;;;;2.60;1.03;;;15.60;99.90;;;;;;4917054;29;20224;-74
2021/05/25 14:30:19;;;;;;;2.50;0.70;;;15.90;99.90;;;;;;4929055;29;20276;-72
2021/05/25 14:32:45;;;;;;;3.00;0.80;;;16.10;99.90;;;;;;4937101;29;20615;-70
2021/05/25 14:35:12;;;;;;;2.37;0.60;;;16.20;99.90;;;;;;4936706;29;20292;-70
2021/05/25 14:37:40;;;;;;;4.23;0.70;;;15.90;99.90;;;;;;4929728;29;20260;-71
2021/05/25 14:40:08;;;;;;;2.07;0.63;;;15.60;99.90;;;;;;4917977;29;20261;-70
2021/05/25 14:42:34;;;;;;;3.70;0.60;;;15.20;99.90;;;;;;4917369;29;20600;-72
2021/05/25 14:45:01;;;;;;;2.37;0.60;;;14.90;99.90;;;;;;4917676;29;20232;-72
2021/05/25 14:47:28;;;;;;;1.40;0.50;;;14.70;99.90;;;;;;4918333;29;20220;-69
2021/05/25 14:49:54;;;;;;;1.13;0.37;;;14.40;99.90;;;;;;4917730;29;20206;-71
2021/05/25 14:52:23;;;;;;;0.57;0.40;;;14.10;99.90;;;;;;4918757;29;20210;-72
2021/05/25 14:54:53;;;;;;;3.40;0.53;;;14.00;99.90;;;;;;4919560;29;20235;-69
2021/05/25 14:57:20;;;;;;;0.70;0.30;;;13.70;99.90;;;;;;4919467;29;20661;-70
2021/05/25 14:59:46;;;;;;;0.40;0.20;;;13.50;99.90;;;;;;4918390;29;20669;-70
2021/05/25 15:02:15;;;;;;;1.13;0.40;;;13.40;99.90;;;;;;4918866;29;20294;-70
2021/05/25 15:04:46;;;;;;;0.70;0.50;;;13.30;99.90;;;;;;4918144;29;20217;-70
2021/05/25 15:07:20;;;;;;;1.70;0.50;;;13.20;99.90;;;;;;4918608;29;20213;-70
2021/05/25 15:09:54;;;;;;;2.53;0.60;;;13.00;99.90;;;;;;4918501;29;20229;-69
2021/05/25 15:12:21;;;;;;;0.50;0.37;;;12.70;99.90;;;;;;4918467;29;20213;-70
2021/05/25 15:14:49;;;;;;;0.57;0.43;;;12.70;99.90;;;;;;4918208;29;20596;-70
2021/05/25 15:17:15;;;;;;;2.00;0.47;;;12.90;99.90;;;;;;4918333;29;20209;-70
2021/05/25 15:19:42;;;;;;;1.00;0.50;;;12.90;99.90;;;;;;4917271;29;20210;-69
2021/05/25 15:22:09;;;;;;;0.60;0.33;;;13.00;99.90;;;;;;4918363;29;20213;-70
2021/05/25 15:24:35;;;;;;;1.13;0.50;;;13.10;99.90;;;;;;4917834;29;20213;-70
2021/05/25 15:27:02;;;;;;;2.00;0.60;;;13.00;99.90;;;;;;4918857;29;20232;-70
2021/05/25 15:29:29;;;;;;;3.47;0.73;;;13.20;99.90;;;;;;4917922;29;20218;-70
2021/05/25 15:31:55;;;;;;;1.43;0.63;;;13.30;99.90;;;;;;4917942;29;20218;-71
2021/05/25 15:34:21;;;;;;;0.80;0.50;;;13.50;99.90;;;;;;4918303;29;20230;-72
2021/05/25 15:36:49;;;;;;;2.20;1.00;;;13.70;99.90;;;;;;4917797;29;20672;-70
2021/05/25 15:39:15;;;;;;;0.93;0.50;;;14.10;99.90;;;;;;4918121;29;20213;-71
2021/05/25 15:41:42;;;;;;;1.90;0.50;;;14.30;99.90;;;;;;4918193;29;20217;-71
2021/05/25 15:44:08;;;;;;;1.07;0.50;;;14.40;99.90;;;;;;4917932;29;20561;-70
2021/05/25 15:46:35;;;;;;;2.83;0.47;;;14.60;99.90;;;;;;4918257;29;20225;-71
2021/05/25 15:49:02;;;;;;;2.80;0.60;;;14.70;99.90;;;;;;4917609;29;20669;-70
2021/05/25 15:51:31;;;;;;;1.53;0.40;;;14.90;99.90;;;;;;4917677;29;20209;-71
2021/05/25 15:54:00;;;;;;;4.87;0.60;;;14.90;99.90;;;;;;4917707;29;20328;-71
2021/05/25 15:56:26;;;;;;;1.70;0.53;;;15.20;99.90;;;;;;4917687;29;20225;-70
2021/05/25 15:58:52;;;;;;;3.73;0.50;;;15.40;99.90;;;;;;4917245;29;20260;-71
2021/05/25 16:01:18;;;;;;;2.57;0.67;;;15.50;99.90;;;;;;4917479;29;20212;-71
2021/05/25 16:03:47;;;;;;;1.27;0.50;;;15.30;99.90;;;;;;4917839;29;20215;-71
2021/05/25 16:06:13;;;;;;;4.10;0.60;;;15.30;99.90;;;;;;4917412;29;20229;-72
2021/05/25 16:08:40;;;;;;;0.60;0.40;;;15.40;99.90;;;;;;4917695;29;20225;-71
2021/05/25 16:11:09;;;;;;;4.43;0.60;;;15.40;99.90;;;;;;4917504;29;20220;-71
2021/05/25 16:13:36;;;;;;;0.67;0.40;;;15.40;99.90;;;;;;4917315;29;20236;-73
2021/05/25 16:16:02;;;;;;;5.30;0.77;;;15.00;99.90;;;;;;4917298;29;20233;-71
2021/05/25 16:18:29;;;;;;;3.07;0.63;;;15.10;99.90;;;;;;4917294;29;20669;-71
2021/05/25 16:20:56;;;;;;;1.83;0.70;;;15.10;99.90;;;;;;4916985;29;20635;-72
2021/05/25 16:23:22;;;;;;;2.33;0.50;;;14.90;99.90;;;;;;4915760;29;20570;-71
2021/05/25 16:25:49;;;;;;;2.00;0.60;;;14.90;99.90;;;;;;4915629;29;20236;-73
2021/05/25 16:28:16;;;;;;;3.03;0.63;;;14.90;99.90;;;;;;4916768;29;20217;-73
2021/05/25 16:30:43;;;;;;;1.90;0.73;;;14.80;99.90;;;;;;4916646;29;20679;-72
2021/05/25 16:33:09;;;;;;;1.50;0.70;;;14.70;99.90;;;;;;4917192;29;20347;-72
2021/05/25 16:35:35;;;;;;;2.07;0.77;;;14.60;99.90;;;;;;4916256;29;20233;-70
2021/05/25 16:38:03;;;;;;;2.50;0.73;;;14.50;99.90;;;;;;4916366;29;20225;-73
2021/05/25 16:40:29;;;;;;;3.30;0.50;;;14.40;99.90;;;;;;4916561;29;20206;-69
2021/05/25 16:42:56;;;;;;;2.90;0.80;;;14.40;99.90;;;;;;4916838;29;20972;-72
2021/05/25 16:45:23;;;;;;;3.60;0.50;;;14.30;99.90;;;;;;4916519;29;20237;-70
2021/05/25 16:47:49;;;;;;;3.97;1.00;;;14.20;99.90;;;;;;4916015;29;20245;-70
2021/05/25 16:50:16;;;;;;;4.53;0.60;;;14.30;99.90;;;;;;4917135;29;20209;-71
2021/05/25 16:52:43;;;;;;;2.90;0.70;;;14.20;99.90;;;;;;4917079;29;20271;-70
2021/05/25 16:55:13;;;;;;;3.20;0.83;;;14.20;99.90;;;;;;4917229;29;20261;-70
2021/05/25 16:57:39;;;;;;;2.70;0.80;;;14.30;99.90;;;;;;4917177;29;20210;-70
2021/05/25 17:00:11;;;;;;;3.67;0.93;;;14.40;99.90;;;;;;4916341;29;20668;-72
2021/05/25 17:02:42;;;;;;;2.83;0.77;;;14.60;99.90;;;;;;4916849;29;20337;-71
2021/05/25 17:08:35;;;;;;;1.10;0.57;;;14.60;99.90;;;;;;4901769;29;20617;-71
2021/05/25 17:14:04;;;;;;;3.83;1.13;;;14.50;99.90;;;;;;4908065;29;20245;-72
2021/05/25 17:19:15;;;;;;;2.43;0.80;;;14.20;99.90;;;;;;4915109;29;20576;-72
2021/05/25 17:21:43;;;;;;;2.13;0.50;;;14.10;99.90;;;;;;4917130;29;20206;-72
2021/05/25 17:24:12;;;;;;;5.40;0.63;;;14.20;99.90;;;;;;4917038;29;20209;-70
2021/05/25 17:26:42;;;;;;;4.93;1.13;;;14.20;99.90;;;;;;4916968;29;20225;-72
2021/05/25 17:29:08;;;;;;;1.63;0.53;;;14.30;99.90;;;;;;4916147;29;20241;-72
2021/05/25 17:31:35;;;;;;;1.53;0.60;;;14.30;99.90;;;;;;4916039;29;20206;-72
2021/05/25 17:34:01;;;;;;;2.57;0.50;;;14.20;99.90;;;;;;4916584;29;20236;-72
2021/05/25 17:36:27;;;;;;;1.93;0.73;;;14.30;99.90;;;;;;4916480;29;20226;-72
2021/05/25 17:38:54;;;;;;;3.17;1.03;;;14.40;99.90;;;;;;4916398;29;20296;-72
2021/05/25 17:41:20;;;;;;;4.20;0.90;;;14.70;99.90;;;;;;4916489;29;20264;-72
2021/05/25 17:43:47;;;;;;;3.37;0.63;;;14.90;99.90;;;;;;4918163;29;20295;-72
2021/05/25 17:46:14;;;;;;;3.83;0.73;;;14.90;99.90;;;;;;4919956;29;20233;-72
2021/05/25 17:48:40;;;;;;;3.57;0.80;;;15.00;99.90;;;;;;4919951;29;20241;-72
2021/05/25 17:51:07;;;;;;;3.70;0.90;;;15.00;99.90;;;;;;4919986;29;20229;-72
2021/05/25 17:53:33;;;;;;;1.13;0.60;;;14.80;99.90;;;;;;4919973;29;20244;-72
2021/05/25 17:55:59;;;;;;;2.07;1.10;;;14.60;99.90;;;;;;4919678;29;20596;-72
2021/05/25 17:58:25;;;;;;;3.50;0.63;;;14.40;99.90;;;;;;4919700;29;20256;-72
2021/05/25 18:00:52;;;;;;;5.40;0.73;;;14.00;99.90;;;;;;4919335;29;20550;-71
2021/05/25 18:03:19;;;;;;;2.60;0.70;;;13.80;99.90;;;;;;4919910;29;20220;-72
2021/05/25 18:05:45;;;;;;;2.17;0.60;;;13.50;99.90;;;;;;4919703;29;20229;-72
2021/05/25 18:08:12;;;;;;;1.93;0.67;;;13.30;99.90;;;;;;4919686;29;20218;-72
2021/05/25 18:10:39;;;;;;;4.37;0.83;;;13.40;99.90;;;;;;4919524;29;20210;-71
2021/05/25 18:13:05;;;;;;;2.33;0.67;;;13.50;99.90;;;;;;4919484;29;20244;-69
2021/05/25 18:15:32;;;;;;;2.40;0.70;;;13.50;99.90;;;;;;4919161;29;20578;-71
2021/05/25 18:17:59;;;;;;;3.97;1.00;;;13.40;99.90;;;;;;4919636;29;20209;-72
2021/05/25 18:20:25;;;;;;;2.00;0.70;;;13.40;99.90;;;;;;4918881;29;20217;-72
2021/05/25 18:22:52;;;;;;;0.63;0.50;;;13.40;99.90;;;;;;4919614;29;20213;-72
2021/05/25 18:25:19;;;;;;;2.13;0.70;;;13.20;99.90;;;;;;4918954;29;20230;-73
2021/05/25 18:27:45;;;;;;;4.77;1.33;;;13.10;99.90;;;;;;4918376;29;20220;-72
2021/05/25 18:30:13;;;;;;;1.67;0.67;;;13.10;99.90;;;;;;4918163;29;20304;-72
2021/05/25 18:32:42;;;;;;;1.00;0.50;;;13.20;99.90;;;;;;4918955;29;20572;-72
2021/05/25 18:35:21;;;;;;;2.77;0.70;;;13.50;99.90;;;;;;4917801;29;20229;-72
2021/05/25 18:51:04;;;;;;;0.90;0.60;;;13.60;99.90;;;;;;5110409;27;20559;-72
2021/05/25 18:53:30;;;;;;;1.60;0.80;;;13.60;99.90;;;;;;5110525;28;20198;-72
2021/05/25 18:55:56;;;;;;;2.30;0.70;;;13.50;99.90;;;;;;5123361;28;20681;-68
2021/05/25 18:58:29;;;;;;;3.20;0.70;;;13.50;99.90;;;;;;5130951;28;20209;-69
2021/05/25 19:00:56;;;;;;;1.70;0.73;;;13.40;99.90;;;;;;5130910;28;20246;-70
2021/05/25 19:03:22;;;;;;;1.77;0.70;;;13.40;99.90;;;;;;5130929;28;20201;-70
2021/05/25 19:05:49;;;;;;;1.73;0.60;;;13.40;99.90;;;;;;5130817;28;20228;-69
2021/05/25 19:08:16;;;;;;;2.93;0.80;;;13.40;99.90;;;;;;5131162;28;20205;-72
2021/05/25 19:10:43;;;;;;;0.93;0.70;;;13.50;99.90;;;;;;5130979;28;20204;-69
2021/05/25 19:13:09;;;;;;;1.90;0.83;;;13.50;99.90;;;;;;5130909;28;20273;-72
2021/05/25 19:15:35;;;;;;;1.60;0.80;;;13.60;99.90;;;;;;5130577;28;20235;-69
2021/05/25 19:18:02;;;;;;;2.13;0.70;;;13.60;99.90;;;;;;5131099;28;20659;-72
2021/05/25 19:20:32;;;;;;;3.37;1.33;;;13.60;99.90;;;;;;5130746;28;20224;-70
2021/05/25 19:23:04;;;;;;;4.27;0.97;;;13.50;99.90;;;;;;5130679;28;20254;-69
2021/05/25 19:25:32;;;;;;;2.50;0.97;;;13.60;99.90;;;;;;5130479;28;20363;-71
2021/05/25 19:28:00;;;;;;;1.30;0.93;;;13.60;99.90;;;;;;5131036;28;20197;-69
2021/05/25 19:30:26;;;;;;;3.53;0.80;;;13.70;99.90;;;;;;5130074;28;20349;-70
2021/05/25 19:32:53;;;;;;;2.50;0.90;;;13.80;99.90;;;;;;5130380;28;20208;-71
2021/05/25 19:35:20;;;;;;;1.77;0.87;;;13.70;99.90;;;;;;5130470;28;20226;-71
2021/05/25 19:37:46;;;;;;;1.90;0.67;;;13.30;99.90;;;;;;5130362;28;20205;-72
2021/05/25 19:40:14;;;;;;;0.93;0.60;;;13.10;99.90;;;;;;5130150;28;20240;-70
2021/05/25 19:42:41;;;;;;;1.37;0.70;;;12.90;99.90;;;;;;5130055;28;20201;-71
2021/05/25 19:45:09;;;;;;;2.37;0.70;;;12.70;99.90;;;;;;5130105;28;20225;-70
2021/05/25 19:47:36;;;;;;;1.43;0.73;;;12.70;99.90;;;;;;5130461;28;20228;-71
2021/05/25 19:50:05;;;;;;;1.13;0.60;;;12.60;99.90;;;;;;5128006;28;20213;-74
2021/05/25 19:52:32;;;;;;;2.23;0.90;;;12.50;99.90;;;;;;5116423;28;20209;-70
2021/05/25 19:54:58;;;;;;;2.00;0.70;;;12.30;99.90;;;;;;5116120;28;20222;-74
2021/05/25 19:57:24;;;;;;;3.00;0.90;;;12.20;99.90;;;;;;5116273;28;20599;-74
2021/05/25 19:59:51;;;;;;;1.20;0.90;;;12.20;99.90;;;;;;5116359;28;20225;-71
2021/05/25 20:02:18;;;;;;;1.70;0.90;;;12.20;99.90;;;;;;5116375;28;20246;-74
2021/05/25 20:04:44;;;;;;;5.53;0.90;;;12.20;99.90;;;;;;5116313;28;20226;-74
2021/05/25 20:07:11;;;;;;;2.73;1.27;;;12.20;99.90;;;;;;5116165;28;20660;-74
2021/05/25 20:09:37;;;;;;;2.43;0.97;;;12.10;99.90;;;;;;5115845;28;20231;-74
2021/05/25 20:12:04;;;;;;;1.57;1.00;;;12.00;99.90;;;;;;5115902;28;20205;-71
2021/05/25 20:14:31;;;;;;;2.47;0.83;;;12.00;99.90;;;;;;5116121;28;20205;-70
2021/05/25 20:16:58;;;;;;;1.43;0.90;;;12.00;99.90;;;;;;5115853;28;20201;-69
2021/05/25 20:19:24;;;;;;;1.50;0.60;;;12.00;99.90;;;;;;5116081;28;20277;-73
2021/05/25 20:21:51;;;;;;;1.30;0.70;;;11.90;99.90;;;;;;5115886;28;20234;-74
2021/05/25 20:24:17;;;;;;;1.63;0.70;;;11.90;99.90;;;;;;5115936;28;20206;-74
2021/05/25 20:26:43;;;;;;;3.00;1.00;;;11.90;99.90;;;;;;5115633;28;20228;-75
2021/05/25 20:29:09;;;;;;;4.87;1.10;;;11.80;99.90;;;;;;5115711;28;20233;-74
2021/05/25 20:31:36;;;;;;;2.50;0.90;;;11.80;99.90;;;;;;5116099;28;20197;-70
2021/05/25 20:39:32;;;;;;;2.50;1.37;;;11.80;99.90;;;;;;5115725;28;20248;-70
2021/05/25 20:41:58;;;;;;;8.83;1.47;;;11.80;99.90;;;;;;5115398;28;20664;-71
2021/05/25 20:44:24;;;;;;;4.23;2.00;;;11.80;99.90;;;;;;5115197;28;20653;-73
2021/05/25 20:46:51;;;;;;;3.13;1.20;;;11.80;99.90;;;;;;5115420;28;20201;-71
2021/05/25 20:49:19;;;;;;;3.90;1.13;;;11.80;99.90;;;;;;5115228;28;20643;-71
2021/05/25 20:51:46;;;;;;;3.20;1.20;;;11.80;99.90;;;;;;5115562;28;20209;-69
2021/05/25 20:54:12;;;;;;;6.17;1.03;;;11.70;99.90;;;;;;5115169;28;20247;-70
2021/05/25 20:56:38;;;;;;;7.23;1.40;;;11.70;99.90;;;;;;5115358;28;20218;-70
2021/05/25 20:59:04;;;;;;;4.47;1.20;;;11.70;99.90;;;;;;5114893;28;20234;-73
2021/05/25 21:01:31;;;;;;;5.60;1.10;;;11.50;99.90;;;;;;5114579;28;20206;-70
2021/05/25 21:03:57;;;;;;;5.50;1.30;;;11.50;99.90;;;;;;5114484;28;20686;-72
2021/05/25 21:06:24;;;;;;;4.53;1.00;;;11.60;99.90;;;;;;5115153;28;20240;-74
2021/05/25 21:08:50;;;;;;;5.87;1.07;;;11.50;99.90;;;;;;5115039;28;20258;-72
2021/05/25 21:11:18;;;;;;;5.83;0.90;;;11.50;99.90;;;;;;5115064;28;20293;-73
2021/05/25 21:13:45;;;;;;;5.07;1.73;;;11.50;99.90;;;;;;5115119;28;20251;-73
2021/05/25 21:16:11;;;;;;;3.73;0.90;;;11.50;99.90;;;;;;5114929;28;20278;-74
2021/05/25 21:18:37;;;;;;;3.73;1.00;;;11.40;99.90;;;;;;5114559;28;20898;-72
2021/05/25 21:21:05;;;;;;;5.63;1.10;;;11.50;99.90;;;;;;5115080;28;20209;-73
